sensor_id;sensor_type;location;lat;lon;timestamp;pressure;altitude;pressure_sealevel;temperature;humidity
51259;BME280;37327;54.254;18.504;2022-11-13T00:01:15;102509.46;;;12.18;100.00
51259;BME280;37327;54.254;18.504;2022-11-13T00:04:48;102510.34;;;12.19;100.00
51259;BME280;37327;54.254;18.504;2022-11-13T00:07:54;102505.77;;;12.19;100.00
51259;BME280;37327;54.254;18.504;2022-11-13T00:11:10;102512.04;;;12.20;100.00
51259;BME280;37327;54.254;18.504;2022-11-13T00:14:20;102515.59;;;12.20;100.00
51259;BME280;37327;54.254;18.504;2022-11-13T00:17:27;102512.88;;;12.20;100.00
51259;BME280;37327;54.254;18.504;2022-11-13T00:21:07;102503.91;;;12.20;100.00
51259;BME280;37327;54.254;18.504;2022-11-13T00:24:13;102504.92;;;12.19;100.00
51259;BME280;37327;54.254;18.504;2022-11-13T00:27:20;102507.77;;;12.17;100.00
51259;BME280;37327;54.254;18.504;2022-11-13T00:30:27;102506.04;;;12.16;100.00
51259;BME280;37327;54.254;18.504;2022-11-13T00:33:33;102508.75;;;12.16;100.00
51259;BME280;37327;54.254;18.504;2022-11-13T00:36:40;102511.45;;;12.16;100.00
51259;BME280;37327;54.254;18.504;2022-11-13T00:40:13;102509.77;;;12.15;100.00
51259;BME280;37327;54.254;18.504;2022-11-13T00:43:20;102513.19;;;12.17;100.00
51259;BME280;37327;54.254;18.504;2022-11-13T00:46:27;102514.16;;;12.16;100.00
51259;BME280;37327;54.254;18.504;2022-11-13T00:49:33;102510.61;;;12.16;100.00
51259;BME280;37327;54.254;18.504;2022-11-13T00:52:40;102508.05;;;12.14;100.00
51259;BME280;37327;54.254;18.504;2022-11-13T00:55:47;102502.63;;;12.14;100.00
51259;BME280;37327;54.254;18.504;2022-11-13T00:59:22;102495.22;;;12.16;100.00
51259;BME280;37327;54.254;18.504;2022-11-13T01:02:29;102504.34;;;12.15;100.00
51259;BME280;37327;54.254;18.504;2022-11-13T01:05:37;102509.77;;;12.15;100.00
51259;BME280;37327;54.254;18.504;2022-11-13T01:08:46;102503.49;;;12.15;100.00
51259;BME280;37327;54.254;18.504;2022-11-13T01:11:53;102498.94;;;12.15;100.00
51259;BME280;37327;54.254;18.504;2022-11-13T01:14:59;102490.80;;;12.15;100.00
51259;BME280;37327;54.254;18.504;2022-11-13T01:18:32;102489.08;;;12.14;100.00
51259;BME280;37327;54.254;18.504;2022-11-13T01:21:40;102484.68;;;12.13;100.00
51259;BME280;37327;54.254;18.504;2022-11-13T01:24:47;102485.67;;;12.12;100.00
51259;BME280;37327;54.254;18.504;2022-11-13T01:27:53;102490.95;;;12.14;100.00
51259;BME280;37327;54.254;18.504;2022-11-13T01:31:04;102485.40;;;12.15;100.00
51259;BME280;37327;54.254;18.504;2022-11-13T01:34:12;102475.54;;;12.14;100.00
51259;BME280;37327;54.254;18.504;2022-11-13T01:37:44;102467.73;;;12.11;100.00
51259;BME280;37327;54.254;18.504;2022-11-13T01:40:51;102477.55;;;12.12;100.00
51259;BME280;37327;54.254;18.504;2022-11-13T01:43:58;102472.13;;;12.12;100.00
51259;BME280;37327;54.254;18.504;2022-11-13T01:47:07;102465.73;;;12.13;100.00
51259;BME280;37327;54.254;18.504;2022-11-13T01:50:15;102466.45;;;12.15;100.00
51259;BME280;37327;54.254;18.504;2022-11-13T01:53:22;102466.30;;;12.17;100.00
51259;BME280;37327;54.254;18.504;2022-11-13T01:56:55;102463.60;;;12.17;100.00
51259;BME280;37327;54.254;18.504;2022-11-13T02:00:07;102461.88;;;12.16;100.00
51259;BME280;37327;54.254;18.504;2022-11-13T02:03:15;102469.85;;;12.17;100.00
51259;BME280;37327;54.254;18.504;2022-11-13T02:06:21;102466.30;;;12.17;100.00
51259;BME280;37327;54.254;18.504;2022-11-13T02:09:34;102462.72;;;12.16;100.00
51259;BME280;37327;54.254;18.504;2022-11-13T02:13:07;102458.33;;;12.15;100.00
51259;BME280;37327;54.254;18.504;2022-11-13T02:16:14;102458.33;;;12.15;100.00
51259;BME280;37327;54.254;18.504;2022-11-13T02:19:29;102462.89;;;12.15;100.00
51259;BME280;37327;54.254;18.504;2022-11-13T02:26:25;102456.46;;;12.16;100.00
51259;BME280;37327;54.254;18.504;2022-11-13T02:29:33;102460.18;;;12.15;100.00
51259;BME280;37327;54.254;18.504;2022-11-13T02:32:46;102449.48;;;12.13;100.00
51259;BME280;37327;54.254;18.504;2022-11-13T02:35:53;102453.88;;;12.14;100.00
51259;BME280;37327;54.254;18.504;2022-11-13T02:39:03;102458.33;;;12.15;100.00
51259;BME280;37327;54.254;18.504;2022-11-13T02:42:37;102447.62;;;12.14;100.00
51259;BME280;37327;54.254;18.504;2022-11-13T02:45:44;102458.59;;;12.12;100.00
51259;BME280;37327;54.254;18.504;2022-11-13T02:48:51;102454.20;;;12.11;100.00
51259;BME280;37327;54.254;18.504;2022-11-13T02:51:58;102457.88;;;12.10;100.00
51259;BME280;37327;54.254;18.504;2022-11-13T02:55:05;102447.90;;;12.11;100.00
51259;BME280;37327;54.254;18.504;2022-11-13T02:58:12;102448.78;;;12.11;100.00
51259;BME280;37327;54.254;18.504;2022-11-13T03:01:46;102449.63;;;12.12;100.00
51259;BME280;37327;54.254;18.504;2022-11-13T03:04:53;102459.61;;;12.11;100.00
51259;BME280;37327;54.254;18.504;2022-11-13T03:08:02;102459.61;;;12.11;100.00
51259;BME280;37327;54.254;18.504;2022-11-13T03:11:10;102457.88;;;12.10;100.00
51259;BME280;37327;54.254;18.504;2022-11-13T03:14:17;102464.32;;;12.09;100.00
51259;BME280;37327;54.254;18.504;2022-11-13T03:17:24;102468.14;;;12.07;100.00
51259;BME280;37327;54.254;18.504;2022-11-13T03:20:56;102462.91;;;12.05;100.00
51259;BME280;37327;54.254;18.504;2022-11-13T03:24:03;102457.48;;;12.05;100.00
51259;BME280;37327;54.254;18.504;2022-11-13T03:27:09;102463.61;;;12.07;100.00
51259;BME280;37327;54.254;18.504;2022-11-13T03:30:17;102458.19;;;12.07;100.00
51259;BME280;37327;54.254;18.504;2022-11-13T03:33:25;102457.18;;;12.08;100.00
51259;BME280;37327;54.254;18.504;2022-11-13T03:36:32;102455.31;;;12.09;100.00
51259;BME280;37327;54.254;18.504;2022-11-13T03:40:06;102457.48;;;12.05;100.00
51259;BME280;37327;54.254;18.504;2022-11-13T03:43:14;102464.72;;;12.04;100.00
51259;BME280;37327;54.254;18.504;2022-11-13T03:46:21;102463.88;;;12.04;100.00
51259;BME280;37327;54.254;18.504;2022-11-13T03:49:28;102457.62;;;12.03;100.00
51259;BME280;37327;54.254;18.504;2022-11-13T03:52:35;102455.05;;;12.02;100.00
51259;BME280;37327;54.254;18.504;2022-11-13T03:55:42;102464.15;;;12.01;100.00
51259;BME280;37327;54.254;18.504;2022-11-13T03:59:15;102460.73;;;11.99;100.00
51259;BME280;37327;54.254;18.504;2022-11-13T04:02:21;102467.88;;;12.00;100.00
51259;BME280;37327;54.254;18.504;2022-11-13T04:05:28;102462.46;;;12.00;100.00
51259;BME280;37327;54.254;18.504;2022-11-13T04:08:35;102456.20;;;11.99;100.00
51259;BME280;37327;54.254;18.504;2022-11-13T04:11:41;102460.59;;;12.00;100.00
51259;BME280;37327;54.254;18.504;2022-11-13T04:14:49;102456.03;;;12.01;100.00
51259;BME280;37327;54.254;18.504;2022-11-13T04:17:55;102457.05;;;12.00;100.00
51259;BME280;37327;54.254;18.504;2022-11-13T04:21:27;102466.16;;;11.99;100.00
51259;BME280;37327;54.254;18.504;2022-11-13T04:24:35;102474.27;;;11.99;100.00
51259;BME280;37327;54.254;18.504;2022-11-13T04:27:42;102470.86;;;11.97;100.00
51259;BME280;37327;54.254;18.504;2022-11-13T04:30:52;102468.32;;;11.95;100.00
51259;BME280;37327;54.254;18.504;2022-11-13T04:33:59;102469.42;;;11.93;100.00
51259;BME280;37327;54.254;18.504;2022-11-13T04:37:06;102470.45;;;11.92;100.00
51259;BME280;37327;54.254;18.504;2022-11-13T04:40:39;102478.81;;;11.89;100.00
51259;BME280;37327;54.254;18.504;2022-11-13T04:43:46;102481.10;;;11.83;100.00
51259;BME280;37327;54.254;18.504;2022-11-13T04:46:52;102483.07;;;11.81;100.00
51259;BME280;37327;54.254;18.504;2022-11-13T04:49:59;102474.09;;;11.81;100.00
51259;BME280;37327;54.254;18.504;2022-11-13T04:53:06;102476.80;;;11.81;100.00
51259;BME280;37327;54.254;18.504;2022-11-13T04:56:13;102475.96;;;11.80;100.00
51259;BME280;37327;54.254;18.504;2022-11-13T04:59:46;102476.94;;;11.79;100.00
51259;BME280;37327;54.254;18.504;2022-11-13T05:02:55;102475.26;;;11.78;100.00
51259;BME280;37327;54.254;18.504;2022-11-13T05:06:04;102475.26;;;11.78;100.00
51259;BME280;37327;54.254;18.504;2022-11-13T05:09:12;102474.41;;;11.78;100.00
51259;BME280;37327;54.254;18.504;2022-11-13T05:12:19;102474.54;;;11.76;100.00
51259;BME280;37327;54.254;18.504;2022-11-13T05:15:25;102471.39;;;11.71;100.00
51259;BME280;37327;54.254;18.504;2022-11-13T05:18:59;102466.28;;;11.68;100.00
51259;BME280;37327;54.254;18.504;2022-11-13T05:22:07;102478.09;;;11.67;100.00
51259;BME280;37327;54.254;18.504;2022-11-13T05:25:14;102466.28;;;11.68;100.00
51259;BME280;37327;54.254;18.504;2022-11-13T05:28:21;102469.25;;;11.65;100.00
51259;BME280;37327;54.254;18.504;2022-11-13T05:31:28;102471.52;;;11.60;100.00
51259;BME280;37327;54.254;18.504;2022-11-13T05:34:34;102467.97;;;11.59;100.00
51259;BME280;37327;54.254;18.504;2022-11-13T05:38:07;102473.51;;;11.58;100.00
51259;BME280;37327;54.254;18.504;2022-11-13T05:41:19;102480.64;;;11.59;100.00
51259;BME280;37327;54.254;18.504;2022-11-13T05:44:26;102483.35;;;11.59;100.00
51259;BME280;37327;54.254;18.504;2022-11-13T05:47:33;102475.23;;;11.59;100.00
51259;BME280;37327;54.254;18.504;2022-11-13T05:50:40;102475.50;;;11.56;100.00
51259;BME280;37327;54.254;18.504;2022-11-13T05:53:48;102475.23;;;11.59;100.00
51259;BME280;37327;54.254;18.504;2022-11-13T05:57:20;102481.36;;;11.61;100.00
51259;BME280;37327;54.254;18.504;2022-11-13T06:00:26;102477.67;;;11.62;100.00
51259;BME280;37327;54.254;18.504;2022-11-13T06:03:33;102471.39;;;11.61;100.00
51259;BME280;37327;54.254;18.504;2022-11-13T06:06:40;102471.52;;;11.60;100.00
51259;BME280;37327;54.254;18.504;2022-11-13T06:09:47;102475.95;;;11.61;100.00
51259;BME280;37327;54.254;18.504;2022-11-13T06:12:54;102478.52;;;11.62;100.00
51259;BME280;37327;54.254;18.504;2022-11-13T06:16:32;102472.40;;;11.60;100.00
51259;BME280;37327;54.254;18.504;2022-11-13T06:19:39;102476.08;;;11.59;100.00
51259;BME280;37327;54.254;18.504;2022-11-13T06:22:46;102477.95;;;11.59;100.00
51259;BME280;37327;54.254;18.504;2022-11-13T06:26:04;102488.05;;;11.57;100.00
51259;BME280;37327;54.254;18.504;2022-11-13T06:29:11;102486.06;;;11.59;100.00
51259;BME280;37327;54.254;18.504;2022-11-13T06:32:44;102485.22;;;11.58;100.00
51259;BME280;37327;54.254;18.504;2022-11-13T06:35:50;102509.39;;;11.60;100.00
51259;BME280;37327;54.254;18.504;2022-11-13T06:38:59;102504.28;;;11.57;100.00
51259;BME280;37327;54.254;18.504;2022-11-13T06:42:06;102508.97;;;11.55;100.00
51259;BME280;37327;54.254;18.504;2022-11-13T06:45:13;102513.67;;;11.53;100.00
51259;BME280;37327;54.254;18.504;2022-11-13T06:48:19;102510.12;;;11.52;100.00
51259;BME280;37327;54.254;18.504;2022-11-13T06:51:52;102508.27;;;11.53;100.00
51259;BME280;37327;54.254;18.504;2022-11-13T06:54:59;102518.95;;;11.54;100.00
51259;BME280;37327;54.254;18.504;2022-11-13T06:58:06;102514.38;;;11.55;100.00
51259;BME280;37327;54.254;18.504;2022-11-13T07:01:20;102518.79;;;11.56;100.00
51259;BME280;37327;54.254;18.504;2022-11-13T07:04:28;102517.09;;;11.55;100.00
51259;BME280;37327;54.254;18.504;2022-11-13T07:07:35;102513.37;;;11.56;100.00
51259;BME280;37327;54.254;18.504;2022-11-13T07:11:13;102510.84;;;11.54;100.00
51259;BME280;37327;54.254;18.504;2022-11-13T07:14:21;102510.84;;;11.54;100.00
51259;BME280;37327;54.254;18.504;2022-11-13T07:17:28;102508.27;;;11.53;100.00
51259;BME280;37327;54.254;18.504;2022-11-13T07:20:35;102505.55;;;11.53;100.00
51259;BME280;37327;54.254;18.504;2022-11-13T07:23:41;102504.54;;;11.54;100.00
51259;BME280;37327;54.254;18.504;2022-11-13T07:26:49;102511.68;;;11.55;100.00
51259;BME280;37327;54.254;18.504;2022-11-13T07:30:22;102510.40;;;11.59;100.00
51259;BME280;37327;54.254;18.504;2022-11-13T07:33:29;102509.12;;;11.63;100.00
51259;BME280;37327;54.254;18.504;2022-11-13T07:36:36;102512.55;;;11.65;100.00
51259;BME280;37327;54.254;18.504;2022-11-13T07:39:42;102507.72;;;11.69;100.00
51259;BME280;37327;54.254;18.504;2022-11-13T07:42:57;102502.88;;;11.72;100.00
51259;BME280;37327;54.254;18.504;2022-11-13T07:46:05;102499.74;;;11.77;100.00
51259;BME280;37327;54.254;18.504;2022-11-13T07:49:37;102500.32;;;11.80;100.00
51259;BME280;37327;54.254;18.504;2022-11-13T07:52:44;102498.90;;;11.86;100.00
51259;BME280;37327;54.254;18.504;2022-11-13T07:55:51;102498.63;;;11.89;100.00
51259;BME280;37327;54.254;18.504;2022-11-13T07:58:57;102509.33;;;11.91;100.00
51259;BME280;37327;54.254;18.504;2022-11-13T08:03:07;102511.46;;;11.97;100.00
51259;BME280;37327;54.254;18.504;2022-11-13T08:06:14;102518.16;;;12.02;100.00
51259;BME280;37327;54.254;18.504;2022-11-13T08:09:21;102521.45;;;12.06;100.00
51259;BME280;37327;54.254;18.504;2022-11-13T08:12:28;102512.88;;;12.11;100.00
51259;BME280;37327;54.254;18.504;2022-11-13T08:15:34;102511.63;;;12.15;100.00
51259;BME280;37327;54.254;18.504;2022-11-13T08:19:10;102517.58;;;12.18;100.00
51259;BME280;37327;54.254;18.504;2022-11-13T08:22:16;102521.74;;;12.22;100.00
51259;BME280;37327;54.254;18.504;2022-11-13T08:25:23;102521.74;;;12.22;100.00
51259;BME280;37327;54.254;18.504;2022-11-13T08:28:31;102516.86;;;12.26;100.00
51259;BME280;37327;54.254;18.504;2022-11-13T08:31:39;102511.88;;;12.31;100.00
51259;BME280;37327;54.254;18.504;2022-11-13T08:34:45;102510.59;;;12.35;100.00
51259;BME280;37327;54.254;18.504;2022-11-13T08:38:19;102519.88;;;12.33;100.00
51259;BME280;37327;54.254;18.504;2022-11-13T08:41:27;102517.16;;;12.33;100.00
51259;BME280;37327;54.254;18.504;2022-11-13T08:44:34;102513.74;;;12.31;100.00
51259;BME280;37327;54.254;18.504;2022-11-13T08:47:41;102519.16;;;12.31;100.00
51259;BME280;37327;54.254;18.504;2022-11-13T08:50:52;102516.28;;;12.32;100.00
51259;BME280;37327;54.254;18.504;2022-11-13T08:53:59;102509.44;;;12.38;100.00
51259;BME280;37327;54.254;18.504;2022-11-13T08:57:31;102518.27;;;12.40;99.59
51259;BME280;37327;54.254;18.504;2022-11-13T09:00:37;102520.42;;;12.46;99.75
51259;BME280;37327;54.254;18.504;2022-11-13T09:03:47;102518.27;;;12.50;98.47
51259;BME280;37327;54.254;18.504;2022-11-13T09:06:54;102510.84;;;12.52;97.29
51259;BME280;37327;54.254;18.504;2022-11-13T09:10:01;102524.24;;;12.53;96.88
51259;BME280;37327;54.254;18.504;2022-11-13T09:13:08;102520.69;;;12.53;96.35
51259;BME280;37327;54.254;18.504;2022-11-13T09:16:42;102518.69;;;12.55;96.27
51259;BME280;37327;54.254;18.504;2022-11-13T09:19:49;102518.55;;;12.56;96.60
51259;BME280;37327;54.254;18.504;2022-11-13T09:23:00;102507.72;;;12.56;96.72
51259;BME280;37327;54.254;18.504;2022-11-13T09:26:09;102511.12;;;12.58;95.70
51259;BME280;37327;54.254;18.504;2022-11-13T09:29:16;102517.12;;;12.62;95.49
51259;BME280;37327;54.254;18.504;2022-11-13T09:32:23;102512.82;;;12.59;95.05
51259;BME280;37327;54.254;18.504;2022-11-13T09:35:55;102516.54;;;12.58;94.47
51259;BME280;37327;54.254;18.504;2022-11-13T09:39:03;102508.70;;;12.55;93.51
51259;BME280;37327;54.254;18.504;2022-11-13T09:42:15;102509.98;;;12.51;93.05
51259;BME280;37327;54.254;18.504;2022-11-13T09:45:23;102515.13;;;12.54;93.51
51259;BME280;37327;54.254;18.504;2022-11-13T09:48:37;102510.28;;;12.58;93.74
51259;BME280;37327;54.254;18.504;2022-11-13T09:52:15;102517.67;;;12.66;94.17
51259;BME280;37327;54.254;18.504;2022-11-13T09:55:28;102511.11;;;12.68;94.17
51259;BME280;37327;54.254;18.504;2022-11-13T10:09:06;102502.52;;;12.73;93.87
51259;BME280;37327;54.254;18.504;2022-11-13T10:12:14;102498.38;;;12.78;93.41
51259;BME280;37327;54.254;18.504;2022-11-13T10:15:21;102509.77;;;12.82;92.48
51259;BME280;37327;54.254;18.504;2022-11-13T10:18:59;102505.34;;;12.81;90.48
51259;BME280;37327;54.254;18.504;2022-11-13T10:25:31;102498.65;;;12.85;89.28
51259;BME280;37327;54.254;18.504;2022-11-13T10:28:41;102489.91;;;12.91;88.33
51259;BME280;37327;54.254;18.504;2022-11-13T10:32:21;102476.93;;;12.95;87.00
51259;BME280;37327;54.254;18.504;2022-11-13T10:39:03;102475.06;;;12.95;85.07
51259;BME280;37327;54.254;18.504;2022-11-13T10:42:38;102472.34;;;12.95;84.66
51259;BME280;37327;54.254;18.504;2022-11-13T10:45:53;102476.74;;;12.96;84.96
51259;BME280;37327;54.254;18.504;2022-11-13T10:52:25;102471.64;;;12.93;84.10
51259;BME280;37327;54.254;18.504;2022-11-13T10:55:59;102469.77;;;12.94;84.64
51259;BME280;37327;54.254;18.504;2022-11-13T10:59:13;102468.02;;;13.02;86.13
51259;BME280;37327;54.254;18.504;2022-11-13T11:02:22;102466.03;;;13.04;86.68
51259;BME280;37327;54.254;18.504;2022-11-13T11:05:29;102471.14;;;13.08;86.84
51259;BME280;37327;54.254;18.504;2022-11-13T11:08:37;102464.41;;;13.12;86.65
51259;BME280;37327;54.254;18.504;2022-11-13T11:12:17;102461.83;;;13.10;85.72
51259;BME280;37327;54.254;18.504;2022-11-13T11:18:53;102460.70;;;13.13;85.73
51259;BME280;37327;54.254;18.504;2022-11-13T11:25:54;102457.44;;;13.09;86.44
51259;BME280;37327;54.254;18.504;2022-11-13T11:32:29;102453.55;;;13.12;86.38
51259;BME280;37327;54.254;18.504;2022-11-13T11:39:28;102451.54;;;13.14;84.26
51259;BME280;37327;54.254;18.504;2022-11-13T11:42:44;102452.80;;;13.19;85.17
51259;BME280;37327;54.254;18.504;2022-11-13T11:45:53;102447.94;;;13.23;85.21
51259;BME280;37327;54.254;18.504;2022-11-13T11:49:25;102447.46;;;13.28;85.18
51259;BME280;37327;54.254;18.504;2022-11-13T11:52:44;102439.19;;;13.29;84.67
51259;BME280;37327;54.254;18.504;2022-11-13T12:03:04;102440.55;;;13.43;84.45
51259;BME280;37327;54.254;18.504;2022-11-13T12:09:37;102440.55;;;13.43;84.17
51259;BME280;37327;54.254;18.504;2022-11-13T12:30:22;102440.61;;;13.33;84.12
51259;BME280;37327;54.254;18.504;2022-11-13T12:37:24;102437.74;;;13.35;84.65
51259;BME280;37327;54.254;18.504;2022-11-13T12:40:44;102437.20;;;13.31;85.46
51259;BME280;37327;54.254;18.504;2022-11-13T12:44:02;102442.63;;;13.31;86.11
51259;BME280;37327;54.254;18.504;2022-11-13T12:47:35;102444.94;;;13.26;86.77
51259;BME280;37327;54.254;18.504;2022-11-13T12:50:42;102439.80;;;13.23;85.53
51259;BME280;37327;54.254;18.504;2022-11-13T12:53:52;102423.81;;;13.20;84.35
51259;BME280;37327;54.254;18.504;2022-11-13T12:57:06;102424.43;;;13.14;85.08
51259;BME280;37327;54.254;18.504;2022-11-13T13:00:21;102410.02;;;13.13;85.84
51259;BME280;37327;54.254;18.504;2022-11-13T13:14:29;102423.41;;;12.97;87.44
51259;BME280;37327;54.254;18.504;2022-11-13T13:17:36;102414.39;;;12.96;87.31
51259;BME280;37327;54.254;18.504;2022-11-13T13:24:20;102408.59;;;12.91;87.98
51259;BME280;37327;54.254;18.504;2022-11-13T13:48:29;102365.76;;;12.67;87.76
51259;BME280;37327;54.254;18.504;2022-11-13T13:51:44;102368.79;;;12.64;88.19
51259;BME280;37327;54.254;18.504;2022-11-13T13:54:53;102356.55;;;12.60;87.95
51259;BME280;37327;54.254;18.504;2022-11-13T13:58:07;102356.97;;;12.55;86.84
51259;BME280;37327;54.254;18.504;2022-11-13T14:05:01;102346.73;;;12.49;86.95
51259;BME280;37327;54.254;18.504;2022-11-13T14:08:15;102338.93;;;12.46;87.66
51259;BME280;37327;54.254;18.504;2022-11-13T14:11:26;102331.23;;;12.41;87.81
51259;BME280;37327;54.254;18.504;2022-11-13T14:15:03;102338.09;;;12.36;88.09
51259;BME280;37327;54.254;18.504;2022-11-13T14:18:16;102323.85;;;12.34;87.19
51259;BME280;37327;54.254;18.504;2022-11-13T14:21:23;102334.68;;;12.34;87.78
51259;BME280;37327;54.254;18.504;2022-11-13T14:24:54;102332.12;;;12.32;87.93
51259;BME280;37327;54.254;18.504;2022-11-13T14:28:25;102331.59;;;12.29;87.83
51259;BME280;37327;54.254;18.504;2022-11-13T14:31:34;102334.02;;;12.22;87.88
51259;BME280;37327;54.254;18.504;2022-11-13T14:34:44;102334.34;;;12.19;87.88
51259;BME280;37327;54.254;18.504;2022-11-13T14:37:54;102346.75;;;12.12;87.58
51259;BME280;37327;54.254;18.504;2022-11-13T14:41:02;102347.90;;;12.09;87.04
51259;BME280;37327;54.254;18.504;2022-11-13T14:44:35;102327.37;;;12.07;87.26
51259;BME280;37327;54.254;18.504;2022-11-13T14:47:43;102325.82;;;12.04;87.66
51259;BME280;37327;54.254;18.504;2022-11-13T14:50:58;102321.42;;;12.03;88.15
51259;BME280;37327;54.254;18.504;2022-11-13T14:54:06;102321.84;;;11.98;88.07
51259;BME280;37327;54.254;18.504;2022-11-13T14:57:18;102324.87;;;11.95;88.30
51259;BME280;37327;54.254;18.504;2022-11-13T15:00:50;102330.70;;;11.91;88.87
51259;BME280;37327;54.254;18.504;2022-11-13T15:03:57;102335.26;;;11.90;89.15
51259;BME280;37327;54.254;18.504;2022-11-13T15:10:26;102336.11;;;11.91;89.26
51259;BME280;37327;54.254;18.504;2022-11-13T15:13:33;102337.96;;;11.90;89.20
51259;BME280;37327;54.254;18.504;2022-11-13T15:17:12;102341.66;;;11.89;89.35
51259;BME280;37327;54.254;18.504;2022-11-13T15:20:24;102351.74;;;11.87;89.55
51259;BME280;37327;54.254;18.504;2022-11-13T15:23:31;102343.63;;;11.87;90.06
51259;BME280;37327;54.254;18.504;2022-11-13T15:26:40;102343.94;;;11.84;90.56
51259;BME280;37327;54.254;18.504;2022-11-13T15:29:47;102355.88;;;11.81;90.97
51259;BME280;37327;54.254;18.504;2022-11-13T15:33:19;102356.18;;;11.78;91.57
51259;BME280;37327;54.254;18.504;2022-11-13T15:36:26;102350.63;;;11.80;90.21
51259;BME280;37327;54.254;18.504;2022-11-13T15:39:33;102353.34;;;11.80;90.59
51259;BME280;37327;54.254;18.504;2022-11-13T15:42:40;102356.05;;;11.80;90.00
51259;BME280;37327;54.254;18.504;2022-11-13T15:45:49;102358.05;;;11.78;90.20
51259;BME280;37327;54.254;18.504;2022-11-13T15:48:56;102362.05;;;11.74;90.53
51259;BME280;37327;54.254;18.504;2022-11-13T15:52:31;102350.48;;;11.72;91.27
51259;BME280;37327;54.254;18.504;2022-11-13T15:55:39;102356.91;;;11.71;92.08
51259;BME280;37327;54.254;18.504;2022-11-13T15:58:47;102356.06;;;11.70;92.13
51259;BME280;37327;54.254;18.504;2022-11-13T16:01:54;102363.60;;;11.66;93.76
51259;BME280;37327;54.254;18.504;2022-11-13T16:05:05;102356.48;;;11.65;94.67
51259;BME280;37327;54.254;18.504;2022-11-13T16:08:14;102368.30;;;11.64;94.57
51259;BME280;37327;54.254;18.504;2022-11-13T16:11:46;102356.64;;;11.64;94.80
51259;BME280;37327;54.254;18.504;2022-11-13T16:14:53;102359.34;;;11.64;95.22
51259;BME280;37327;54.254;18.504;2022-11-13T16:18:00;102364.76;;;11.64;96.45
51259;BME280;37327;54.254;18.504;2022-11-13T16:21:11;102364.89;;;11.62;97.31
51259;BME280;37327;54.254;18.504;2022-11-13T16:24:18;102366.01;;;11.60;97.95
51259;BME280;37327;54.254;18.504;2022-11-13T16:27:30;102373.28;;;11.59;98.39
51259;BME280;37327;54.254;18.504;2022-11-13T16:31:05;102370.01;;;11.56;99.30
51259;BME280;37327;54.254;18.504;2022-11-13T16:34:13;102373.59;;;11.56;100.00
51259;BME280;37327;54.254;18.504;2022-11-13T16:37:22;102370.01;;;11.56;100.00
51259;BME280;37327;54.254;18.504;2022-11-13T16:40:30;102370.18;;;11.54;100.00
51259;BME280;37327;54.254;18.504;2022-11-13T16:43:37;102365.89;;;11.52;100.00
51259;BME280;37327;54.254;18.504;2022-11-13T16:46:44;102369.88;;;11.48;100.00
51259;BME280;37327;54.254;18.504;2022-11-13T16:50:21;102364.33;;;11.49;100.00
51259;BME280;37327;54.254;18.504;2022-11-13T16:53:29;102370.59;;;11.50;100.00
51259;BME280;37327;54.254;18.504;2022-11-13T16:56:36;102377.85;;;11.49;100.00
51259;BME280;37327;54.254;18.504;2022-11-13T16:59:42;102369.30;;;11.44;100.00
51259;BME280;37327;54.254;18.504;2022-11-13T17:02:53;102368.01;;;11.38;100.00
51259;BME280;37327;54.254;18.504;2022-11-13T17:06:00;102361.04;;;11.36;100.00
51259;BME280;37327;54.254;18.504;2022-11-13T17:09:31;102357.37;;;11.37;100.00
51259;BME280;37327;54.254;18.504;2022-11-13T17:12:38;102368.30;;;11.35;100.00
51259;BME280;37327;54.254;18.504;2022-11-13T17:15:45;102365.60;;;11.35;100.00
51259;BME280;37327;54.254;18.504;2022-11-13T17:18:52;102355.63;;;11.36;100.00
51259;BME280;37327;54.254;18.504;2022-11-13T17:21:59;102361.04;;;11.36;100.00
51259;BME280;37327;54.254;18.504;2022-11-13T17:25:07;102354.78;;;11.35;100.00
51259;BME280;37327;54.254;18.504;2022-11-13T17:28:41;102358.47;;;11.34;100.00
51259;BME280;37327;54.254;18.504;2022-11-13T17:31:48;102360.20;;;11.35;100.00
51259;BME280;37327;54.254;18.504;2022-11-13T17:34:54;102367.87;;;11.30;100.00
51259;BME280;37327;54.254;18.504;2022-11-13T17:38:02;102368.43;;;11.24;100.00
51259;BME280;37327;54.254;18.504;2022-11-13T17:41:11;102371.70;;;11.18;100.00
51259;BME280;37327;54.254;18.504;2022-11-13T17:44:18;102372.85;;;11.15;100.00
51259;BME280;37327;54.254;18.504;2022-11-13T17:47:51;102363.87;;;11.15;100.00
51259;BME280;37327;54.254;18.504;2022-11-13T17:51:03;102363.73;;;11.16;100.00
51259;BME280;37327;54.254;18.504;2022-11-13T17:54:12;102362.76;;;11.17;100.00
51259;BME280;37327;54.254;18.504;2022-11-13T17:57:18;102360.90;;;11.18;100.00
51259;BME280;37327;54.254;18.504;2022-11-13T18:00:25;102361.61;;;11.20;100.00
51259;BME280;37327;54.254;18.504;2022-11-13T18:03:32;102367.02;;;11.20;100.00
51259;BME280;37327;54.254;18.504;2022-11-13T18:07:05;102365.16;;;11.20;100.00
51259;BME280;37327;54.254;18.504;2022-11-13T18:10:13;102362.46;;;11.20;100.00
51259;BME280;37327;54.254;18.504;2022-11-13T18:13:20;102358.91;;;11.20;100.00
51259;BME280;37327;54.254;18.504;2022-11-13T18:16:29;102363.46;;;11.19;100.00
51259;BME280;37327;54.254;18.504;2022-11-13T18:19:39;102363.60;;;11.18;100.00